Time;durP1;ratioP1;P1;durP2;ratioP2;P2;SDS_P1;SDS_P2;PMS_P1;PMS_P2;Temp;Humidity;BMP_temperature;BMP_pressure;BME280_temperature;BME280_humidity;BME280_pressure;Samples;Min_cycle;Max_cycle;Signal;HPM_P1;HPM_P2
2023/03/11 00:01:11;;;;;;;11.07;5.00;;;4.40;99.90;;;;;;5039641;28;20758;-32
2023/03/11 00:03:39;;;;;;;8.67;4.90;;;4.40;99.90;;;;;;5041011;28;20201;-32
2023/03/11 00:06:08;;;;;;;8.60;4.57;;;4.40;99.90;;;;;;5035271;28;20242;-32
2023/03/11 00:08:36;;;;;;;11.77;4.77;;;4.40;99.90;;;;;;5042058;28;20208;-32
2023/03/11 00:11:05;;;;;;;10.07;3.60;;;4.40;99.90;;;;;;5038047;28;20659;-32
2023/03/11 00:13:35;;;;;;;9.37;3.50;;;4.40;99.90;;;;;;5027909;28;20243;-32
2023/03/11 00:16:03;;;;;;;7.70;3.43;;;4.40;99.90;;;;;;5054806;28;20240;-32
2023/03/11 00:18:30;;;;;;;6.73;3.17;;;4.30;99.90;;;;;;5046395;28;20606;-32
2023/03/11 00:21:00;;;;;;;8.63;3.73;;;4.30;99.90;;;;;;5047255;28;20216;-32
2023/03/11 00:23:34;;;;;;;9.73;3.00;;;4.30;99.90;;;;;;5046813;28;20212;-32
2023/03/11 00:26:02;;;;;;;7.13;2.67;;;4.30;99.90;;;;;;5044999;28;20221;-32
2023/03/11 00:28:31;;;;;;;7.87;3.10;;;4.20;99.90;;;;;;5046793;28;20282;-32
2023/03/11 00:31:02;;;;;;;7.87;2.47;;;4.20;99.90;;;;;;5047267;28;20212;-32
2023/03/11 00:33:29;;;;;;;8.27;3.47;;;4.20;99.90;;;;;;5055996;28;20208;-32
2023/03/11 00:35:59;;;;;;;6.50;2.57;;;4.20;99.90;;;;;;5044803;28;20298;-32
2023/03/11 00:38:31;;;;;;;7.90;2.70;;;4.10;99.90;;;;;;5046086;28;20321;-32
2023/03/11 00:41:05;;;;;;;7.43;2.30;;;4.10;99.90;;;;;;5032898;28;20239;-32
2023/03/11 00:43:33;;;;;;;7.43;2.80;;;4.10;99.90;;;;;;5035912;28;20562;-32
2023/03/11 00:46:03;;;;;;;7.47;2.43;;;4.10;99.90;;;;;;5053694;28;20207;-31
2023/03/11 00:48:33;;;;;;;7.63;2.83;;;4.10;99.90;;;;;;5067443;28;20208;-31
2023/03/11 00:51:00;;;;;;;9.37;3.67;;;4.10;99.90;;;;;;5067088;28;20587;-31
2023/03/11 00:53:32;;;;;;;6.23;2.67;;;4.10;99.90;;;;;;5066792;28;20301;-31
2023/03/11 00:56:06;;;;;;;11.30;2.90;;;4.00;99.90;;;;;;5066332;28;20204;-31
2023/03/11 00:58:34;;;;;;;5.80;2.83;;;4.10;99.90;;;;;;5055691;28;20212;-31
2023/03/11 01:01:16;;;;;;;8.87;3.00;;;4.00;99.90;;;;;;5047247;28;20280;-31
2023/03/11 01:03:45;;;;;;;8.73;3.20;;;4.10;99.90;;;;;;5046886;28;20635;-31
2023/03/11 01:06:13;;;;;;;8.90;3.17;;;4.00;99.90;;;;;;5028801;28;20209;-31
2023/03/11 01:08:41;;;;;;;8.33;2.87;;;4.00;99.90;;;;;;5047041;28;20283;-31
2023/03/11 01:11:08;;;;;;;6.37;2.93;;;4.00;99.90;;;;;;5046263;28;20661;-31
2023/03/11 01:13:35;;;;;;;7.97;3.37;;;4.00;99.90;;;;;;5045982;28;20702;-31
2023/03/11 01:16:03;;;;;;;5.97;2.70;;;4.00;99.90;;;;;;5039309;28;20202;-31
2023/03/11 01:18:33;;;;;;;7.20;3.00;;;4.00;99.90;;;;;;5042658;28;20220;-31
2023/03/11 01:21:03;;;;;;;7.10;2.87;;;4.00;99.90;;;;;;5038252;28;20297;-31
2023/03/11 01:23:33;;;;;;;7.27;2.70;;;4.00;99.90;;;;;;5038349;28;20306;-31
2023/03/11 01:26:00;;;;;;;4.97;2.50;;;3.90;99.90;;;;;;5032002;28;20297;-31
2023/03/11 01:28:29;;;;;;;10.87;3.10;;;3.90;99.90;;;;;;5030624;28;20716;-31
2023/03/11 01:30:58;;;;;;;5.30;2.20;;;3.90;99.90;;;;;;5050904;28;20384;-31
2023/03/11 01:33:30;;;;;;;5.77;2.37;;;3.80;99.90;;;;;;5028927;28;20247;-31
2023/03/11 01:35:59;;;;;;;6.60;2.70;;;3.80;99.90;;;;;;5043399;28;20311;-31
2023/03/11 01:38:27;;;;;;;8.63;2.63;;;3.80;99.90;;;;;;5037838;28;20223;-31
2023/03/11 01:40:54;;;;;;;5.70;2.50;;;3.70;99.90;;;;;;5028881;28;20660;-31
2023/03/11 01:43:42;;;;;;;4.87;2.87;;;3.70;99.90;;;;;;5042259;28;20731;-31
2023/03/11 01:46:15;;;;;;;11.70;3.03;;;3.70;99.90;;;;;;5030860;28;20204;-31
2023/03/11 01:48:49;;;;;;;5.57;2.83;;;3.70;99.90;;;;;;5055423;28;20302;-31
2023/03/11 01:51:29;;;;;;;6.97;2.37;;;3.70;99.90;;;;;;5048681;28;20323;-31
2023/03/11 01:54:03;;;;;;;5.27;2.63;;;3.70;99.90;;;;;;5044795;28;20244;-31
2023/03/11 01:56:31;;;;;;;7.33;2.50;;;3.70;99.90;;;;;;5045928;28;20204;-31
2023/03/11 01:59:01;;;;;;;4.93;2.40;;;3.70;99.90;;;;;;5059458;28;20237;-31
2023/03/11 02:01:34;;;;;;;4.97;2.33;;;3.70;99.90;;;;;;5035685;28;20208;-31
2023/03/11 02:04:08;;;;;;;6.57;2.40;;;3.80;99.90;;;;;;5059000;28;20593;-31
2023/03/11 02:06:36;;;;;;;3.13;2.03;;;3.70;99.90;;;;;;5041737;28;20215;-31
2023/03/11 02:09:05;;;;;;;6.33;2.20;;;3.80;99.90;;;;;;5043137;28;20212;-31
2023/03/11 02:11:34;;;;;;;5.33;2.00;;;3.80;99.90;;;;;;5044016;28;20219;-31
2023/03/11 02:14:09;;;;;;;6.77;2.43;;;3.80;99.90;;;;;;5035192;28;20254;-31
2023/03/11 02:16:37;;;;;;;5.53;2.20;;;3.80;99.90;;;;;;5042827;28;20212;-31
2023/03/11 02:19:27;;;;;;;4.60;2.13;;;3.80;99.90;;;;;;5043967;28;20323;-31
2023/03/11 02:21:55;;;;;;;4.97;2.20;;;3.90;99.90;;;;;;5039481;28;20246;-31
2023/03/11 02:24:43;;;;;;;3.53;1.83;;;3.80;99.90;;;;;;5010044;28;20244;-31
2023/03/11 02:27:15;;;;;;;6.47;2.27;;;3.90;99.90;;;;;;5044034;28;20651;-31
2023/03/11 02:29:48;;;;;;;7.50;2.50;;;3.90;99.90;;;;;;5042635;28;20265;-31
2023/03/11 02:32:17;;;;;;;5.50;2.43;;;3.90;99.90;;;;;;5041032;28;20219;-31
2023/03/11 02:34:44;;;;;;;7.30;2.37;;;3.90;99.90;;;;;;5040103;28;20289;-31
2023/03/11 02:37:14;;;;;;;6.60;2.70;;;3.90;99.90;;;;;;5047058;28;20681;-31
2023/03/11 02:39:50;;;;;;;7.10;2.23;;;3.90;99.90;;;;;;5048365;28;20248;-31
2023/03/11 02:42:31;;;;;;;6.33;2.60;;;3.90;99.90;;;;;;5054138;28;20303;-31
2023/03/11 02:45:10;;;;;;;7.17;2.33;;;3.90;99.90;;;;;;5056440;28;20204;-31
2023/03/11 02:47:39;;;;;;;6.00;2.30;;;3.90;99.90;;;;;;5064348;28;20197;-31
2023/03/11 02:50:12;;;;;;;6.03;2.20;;;3.90;99.90;;;;;;5064258;28;20231;-30
2023/03/11 02:52:42;;;;;;;6.67;2.47;;;4.00;99.90;;;;;;5065262;28;20202;-31
2023/03/11 02:55:13;;;;;;;6.77;2.20;;;4.00;99.90;;;;;;5064593;28;20269;-31
2023/03/11 02:57:45;;;;;;;6.67;2.20;;;4.00;99.90;;;;;;5050181;28;20199;-31
2023/03/11 03:00:15;;;;;;;5.77;2.77;;;4.00;99.90;;;;;;5059591;28;20359;-31
2023/03/11 03:02:45;;;;;;;5.63;2.37;;;4.00;99.90;;;;;;5043433;28;20199;-31
2023/03/11 03:05:15;;;;;;;6.00;2.40;;;4.00;99.90;;;;;;5044794;28;20319;-31
2023/03/11 03:07:42;;;;;;;8.60;2.60;;;4.00;99.90;;;;;;5037581;28;20626;-31
2023/03/11 03:10:13;;;;;;;7.17;2.60;;;4.00;99.90;;;;;;5031038;28;20208;-31
2023/03/11 03:12:42;;;;;;;8.80;2.73;;;4.00;99.90;;;;;;5044160;28;20649;-31
2023/03/11 03:15:10;;;;;;;7.13;2.33;;;3.90;99.90;;;;;;5043689;28;20299;-31
2023/03/11 03:17:38;;;;;;;6.10;2.97;;;3.90;99.90;;;;;;5041946;28;20223;-31
2023/03/11 03:20:10;;;;;;;4.10;2.27;;;3.90;99.90;;;;;;5025164;28;20290;-31
2023/03/11 03:22:42;;;;;;;6.57;2.50;;;3.90;99.90;;;;;;5036598;28;20688;-31
2023/03/11 03:25:13;;;;;;;7.77;2.90;;;3.90;99.90;;;;;;5025386;28;20224;-31
2023/03/11 03:27:45;;;;;;;6.90;2.77;;;3.90;99.90;;;;;;5043821;28;20212;-31
2023/03/11 03:30:18;;;;;;;6.73;2.63;;;3.90;99.90;;;;;;5042805;28;20214;-31
2023/03/11 03:32:45;;;;;;;7.13;2.57;;;3.90;99.90;;;;;;5030571;28;20208;-31
2023/03/11 03:35:12;;;;;;;7.33;2.63;;;3.90;99.90;;;;;;5034150;28;20247;-31
2023/03/11 03:37:41;;;;;;;8.73;2.67;;;3.90;99.90;;;;;;5043076;28;20302;-31
2023/03/11 03:40:11;;;;;;;5.93;2.90;;;3.90;99.90;;;;;;5030875;28;20220;-31
2023/03/11 03:42:38;;;;;;;8.00;2.97;;;3.90;99.90;;;;;;5054576;28;20306;-31
2023/03/11 03:45:12;;;;;;;6.20;2.53;;;3.90;99.90;;;;;;5037966;28;20323;-31
2023/03/11 03:47:39;;;;;;;5.33;2.83;;;3.80;99.90;;;;;;5024944;28;20201;-31
2023/03/11 03:50:09;;;;;;;5.97;2.70;;;3.90;99.90;;;;;;5048427;28;20635;-31
2023/03/11 03:52:44;;;;;;;5.83;2.50;;;3.80;99.90;;;;;;5042529;28;20214;-32
2023/03/11 03:55:14;;;;;;;5.00;2.63;;;3.80;99.90;;;;;;5020971;28;20277;-31
2023/03/11 03:57:43;;;;;;;6.93;2.50;;;3.80;99.90;;;;;;5040060;28;20223;-31
2023/03/11 04:00:14;;;;;;;8.60;2.77;;;3.80;99.90;;;;;;5042072;28;20285;-31
2023/03/11 04:02:43;;;;;;;6.63;2.80;;;3.80;99.90;;;;;;5029246;28;20695;-31
2023/03/11 04:05:11;;;;;;;4.80;2.70;;;3.80;99.90;;;;;;5037689;28;20559;-31
2023/03/11 04:07:43;;;;;;;8.20;3.07;;;3.80;99.90;;;;;;5040112;28;20330;-31
2023/03/11 04:10:15;;;;;;;5.00;2.50;;;3.80;99.90;;;;;;5028273;28;20232;-31
2023/03/11 04:12:44;;;;;;;4.53;2.53;;;3.80;99.90;;;;;;5053444;28;20644;-31
2023/03/11 04:15:11;;;;;;;5.70;2.60;;;3.80;99.90;;;;;;5039516;28;20761;-31
2023/03/11 04:17:38;;;;;;;7.80;2.93;;;3.80;99.90;;;;;;5040516;28;20753;-31
2023/03/11 04:20:09;;;;;;;8.50;2.60;;;3.70;99.90;;;;;;5043863;28;20625;-31
2023/03/11 04:22:38;;;;;;;7.90;2.73;;;3.70;99.90;;;;;;5042712;28;20637;-31
2023/03/11 04:25:06;;;;;;;5.83;2.57;;;3.70;99.90;;;;;;5041869;28;20232;-31
2023/03/11 04:27:33;;;;;;;7.00;2.90;;;3.70;99.90;;;;;;5041831;28;20227;-31
2023/03/11 04:30:00;;;;;;;6.67;2.87;;;3.70;99.90;;;;;;5039456;28;20204;-31
2023/03/11 04:32:28;;;;;;;6.63;2.87;;;3.70;99.90;;;;;;5037718;28;20660;-31
2023/03/11 04:34:55;;;;;;;6.47;2.87;;;3.60;99.90;;;;;;5044310;28;20208;-31
2023/03/11 04:37:26;;;;;;;7.40;2.73;;;3.60;99.90;;;;;;5055436;28;20811;-31
2023/03/11 04:39:53;;;;;;;5.67;2.30;;;3.60;99.90;;;;;;5065530;28;20219;-31
2023/03/11 04:42:20;;;;;;;7.87;2.70;;;3.60;99.90;;;;;;5059036;28;20206;-31
2023/03/11 04:44:52;;;;;;;6.83;2.90;;;3.60;99.90;;;;;;5053544;28;20207;-31
2023/03/11 04:47:20;;;;;;;7.83;2.77;;;3.60;99.90;;;;;;5047333;28;20660;-31
2023/03/11 04:49:47;;;;;;;6.23;2.87;;;3.60;99.90;;;;;;5040919;28;20770;-31
2023/03/11 04:52:15;;;;;;;8.83;3.13;;;3.60;99.90;;;;;;5036934;28;20204;-31
2023/03/11 04:54:44;;;;;;;7.27;2.93;;;3.60;99.90;;;;;;5075248;28;20285;-31
2023/03/11 04:57:13;;;;;;;9.33;2.97;;;3.50;99.90;;;;;;5064037;28;20743;-31
2023/03/11 04:59:42;;;;;;;5.83;2.73;;;3.50;99.90;;;;;;5045528;28;20310;-31
2023/03/11 05:02:12;;;;;;;7.37;3.03;;;3.50;99.90;;;;;;5046499;28;20701;-31
2023/03/11 05:04:42;;;;;;;7.97;3.20;;;3.50;99.90;;;;;;5047484;28;20222;-31
2023/03/11 05:07:09;;;;;;;8.97;3.20;;;3.40;99.90;;;;;;5045631;28;20258;-31
2023/03/11 05:09:36;;;;;;;6.10;2.80;;;3.40;99.90;;;;;;5043895;28;20706;-31
2023/03/11 05:12:06;;;;;;;7.73;2.83;;;3.40;99.90;;;;;;5044268;28;20212;-31
2023/03/11 05:14:33;;;;;;;8.77;3.43;;;3.40;99.90;;;;;;5044150;28;20226;-31
2023/03/11 05:17:00;;;;;;;7.37;2.73;;;3.30;99.90;;;;;;5044748;28;20203;-31
2023/03/11 05:19:33;;;;;;;6.23;3.13;;;3.30;99.90;;;;;;5045383;28;20644;-31
2023/03/11 05:22:02;;;;;;;8.10;3.10;;;3.20;99.90;;;;;;5042646;28;20289;-31
2023/03/11 05:24:30;;;;;;;7.00;2.83;;;3.20;99.90;;;;;;5040544;28;20223;-31
2023/03/11 05:26:58;;;;;;;8.93;3.40;;;3.20;99.90;;;;;;5059650;28;20197;-31
2023/03/11 05:29:25;;;;;;;5.90;3.20;;;3.10;99.90;;;;;;5062052;28;20216;-31
2023/03/11 05:31:54;;;;;;;7.73;3.10;;;3.10;99.90;;;;;;5044740;28;20204;-31
2023/03/11 05:34:24;;;;;;;5.67;3.10;;;3.10;99.90;;;;;;5028648;28;20227;-31
2023/03/11 05:36:53;;;;;;;8.83;3.40;;;3.00;99.90;;;;;;5024934;28;20197;-32
2023/03/11 05:39:25;;;;;;;6.63;3.10;;;3.00;99.90;;;;;;5038439;28;20220;-32
2023/03/11 05:41:52;;;;;;;6.23;3.13;;;3.00;99.90;;;;;;5043090;28;20283;-32
2023/03/11 05:44:19;;;;;;;6.50;3.30;;;2.90;99.90;;;;;;5042141;28;20200;-32
2023/03/11 05:46:49;;;;;;;7.73;3.30;;;2.90;99.90;;;;;;5041475;28;20586;-32
2023/03/11 05:49:17;;;;;;;5.90;2.70;;;2.90;99.90;;;;;;5044315;28;20671;-32
2023/03/11 05:51:44;;;;;;;8.37;3.93;;;2.90;99.90;;;;;;5043533;28;20639;-32
2023/03/11 05:54:13;;;;;;;6.67;3.77;;;2.90;99.90;;;;;;5041537;28;20259;-32
2023/03/11 05:56:42;;;;;;;9.10;3.20;;;2.90;99.90;;;;;;5040850;28;20361;-32
2023/03/11 05:59:13;;;;;;;8.60;3.53;;;2.90;99.90;;;;;;5041940;28;20274;-32
2023/03/11 06:01:45;;;;;;;9.97;4.10;;;2.90;99.90;;;;;;5054556;28;20236;-32
2023/03/11 06:04:15;;;;;;;8.40;3.60;;;2.90;99.90;;;;;;5049187;28;20219;-32
2023/03/11 06:06:44;;;;;;;9.00;3.30;;;2.90;99.90;;;;;;5042748;28;20541;-32
2023/03/11 06:09:13;;;;;;;6.27;3.30;;;2.90;99.90;;;;;;5043143;28;20206;-32
2023/03/11 06:11:42;;;;;;;7.00;3.63;;;2.90;99.90;;;;;;5041577;28;20216;-32
2023/03/11 06:14:13;;;;;;;8.40;4.30;;;3.00;99.90;;;;;;5042548;28;20291;-32
2023/03/11 06:16:43;;;;;;;9.50;3.47;;;3.00;99.90;;;;;;5045666;28;20200;-32
2023/03/11 06:19:13;;;;;;;6.97;3.90;;;3.00;99.90;;;;;;5060756;28;20277;-32
2023/03/11 06:21:40;;;;;;;7.97;3.67;;;3.00;99.90;;;;;;5045619;28;20216;-32
2023/03/11 06:24:09;;;;;;;9.73;3.87;;;3.00;99.90;;;;;;5058608;28;20327;-32
2023/03/11 06:26:37;;;;;;;8.80;4.50;;;3.00;99.90;;;;;;5037580;28;20195;-32
2023/03/11 06:29:11;;;;;;;8.30;3.90;;;3.00;99.90;;;;;;5043704;28;20618;-32
2023/03/11 06:31:38;;;;;;;6.00;3.67;;;3.00;99.90;;;;;;5043764;28;20203;-32
2023/03/11 06:34:09;;;;;;;9.33;3.93;;;3.00;99.90;;;;;;5044415;28;20196;-32
2023/03/11 06:36:41;;;;;;;7.77;3.90;;;3.00;99.90;;;;;;5042801;28;20317;-32
2023/03/11 06:39:14;;;;;;;10.07;4.50;;;3.00;99.90;;;;;;5046577;28;20583;-32
2023/03/11 06:41:46;;;;;;;9.60;4.57;;;3.00;99.90;;;;;;5044651;28;20208;-32
2023/03/11 06:44:15;;;;;;;9.63;4.40;;;2.90;99.90;;;;;;5050912;28;20214;-32
2023/03/11 06:46:45;;;;;;;8.93;4.30;;;2.90;99.90;;;;;;5060426;28;20299;-32
2023/03/11 06:49:14;;;;;;;7.27;3.93;;;2.90;99.90;;;;;;5060382;28;20207;-32
2023/03/11 06:51:44;;;;;;;8.00;3.97;;;2.90;99.90;;;;;;5043464;28;20303;-32
2023/03/11 06:54:11;;;;;;;9.97;4.13;;;2.90;99.90;;;;;;5051661;28;20267;-32
2023/03/11 06:56:41;;;;;;;7.17;3.50;;;2.90;99.90;;;;;;5040431;28;20700;-32
2023/03/11 06:59:10;;;;;;;7.20;3.73;;;2.90;99.90;;;;;;5046372;28;20298;-32
2023/03/11 07:01:37;;;;;;;8.37;4.23;;;2.90;99.90;;;;;;5042890;28;20252;-32
2023/03/11 07:04:04;;;;;;;9.13;4.10;;;2.90;99.90;;;;;;5043888;28;20199;-32
2023/03/11 07:06:34;;;;;;;8.37;4.50;;;2.90;99.90;;;;;;5041808;28;20223;-32
2023/03/11 07:09:04;;;;;;;8.30;4.27;;;2.90;99.90;;;;;;5041929;28;20591;-32
2023/03/11 07:11:31;;;;;;;9.33;4.20;;;2.90;99.90;;;;;;5042540;28;20289;-32
2023/03/11 07:14:01;;;;;;;9.23;4.30;;;2.90;99.90;;;;;;5047733;28;20222;-32
2023/03/11 07:16:30;;;;;;;5.90;3.97;;;2.90;99.90;;;;;;5045170;28;20216;-32
2023/03/11 07:19:02;;;;;;;8.30;4.20;;;2.90;99.90;;;;;;5042168;28;20207;-32
2023/03/11 07:21:32;;;;;;;10.40;3.87;;;2.90;99.90;;;;;;5049671;28;20339;-32
2023/03/11 07:24:01;;;;;;;8.93;4.13;;;2.90;99.90;;;;;;5040305;28;20653;-32
2023/03/11 07:26:33;;;;;;;7.73;4.57;;;2.90;99.90;;;;;;5042847;28;20204;-32
2023/03/11 07:29:03;;;;;;;7.90;4.47;;;3.00;99.90;;;;;;5042393;28;20231;-32
2023/03/11 07:31:34;;;;;;;6.63;4.30;;;3.00;99.90;;;;;;5036031;28;20242;-32
2023/03/11 07:34:09;;;;;;;10.53;4.13;;;3.00;99.90;;;;;;5041835;28;20204;-32
2023/03/11 07:36:41;;;;;;;6.83;4.50;;;3.00;99.90;;;;;;5038461;28;20208;-32
2023/03/11 07:39:17;;;;;;;10.93;5.30;;;3.10;99.90;;;;;;5041441;28;20243;-32
2023/03/11 07:41:50;;;;;;;8.20;5.00;;;3.10;99.90;;;;;;5035743;28;20333;-32
2023/03/11 07:44:19;;;;;;;11.07;5.10;;;3.10;99.90;;;;;;5061967;28;20318;-32
2023/03/11 07:46:51;;;;;;;8.17;4.43;;;3.20;99.90;;;;;;5044299;28;20239;-37
2023/03/11 07:49:19;;;;;;;9.63;4.40;;;3.20;99.90;;;;;;5049207;28;20216;-32
2023/03/11 07:51:46;;;;;;;10.83;4.80;;;3.30;99.90;;;;;;5031547;28;20209;-32
2023/03/11 07:54:13;;;;;;;9.80;4.63;;;3.30;99.90;;;;;;5043436;28;20236;-32
2023/03/11 07:56:43;;;;;;;8.87;4.50;;;3.30;99.90;;;;;;5043054;28;20220;-32
2023/03/11 07:59:13;;;;;;;7.03;4.27;;;3.40;99.90;;;;;;5045275;28;20212;-32
2023/03/11 08:01:46;;;;;;;10.07;5.43;;;3.40;99.90;;;;;;5047765;28;20281;-32
2023/03/11 08:04:15;;;;;;;10.30;5.00;;;3.40;99.90;;;;;;5044402;28;20201;-32
2023/03/11 08:06:45;;;;;;;7.63;5.07;;;3.50;99.90;;;;;;5055755;28;20231;-32
2023/03/11 08:09:15;;;;;;;8.50;4.23;;;3.50;99.90;;;;;;5050270;28;20203;-33
2023/03/11 08:11:44;;;;;;;7.70;4.73;;;3.50;99.90;;;;;;5030529;28;20204;-32
2023/03/11 08:14:16;;;;;;;8.27;4.50;;;3.60;99.90;;;;;;5037496;28;20618;-32
2023/03/11 08:16:48;;;;;;;7.67;4.60;;;3.60;99.90;;;;;;5048603;28;20300;-32
2023/03/11 08:19:18;;;;;;;10.73;4.50;;;3.70;99.90;;;;;;5048518;28;20211;-32
2023/03/11 08:21:48;;;;;;;7.87;4.70;;;3.70;99.90;;;;;;5048503;28;20765;-32
2023/03/11 08:24:15;;;;;;;9.13;4.50;;;3.70;99.90;;;;;;5027317;28;20235;-32
2023/03/11 08:26:47;;;;;;;9.13;4.30;;;3.80;99.90;;;;;;5044068;28;20212;-30
2023/03/11 08:29:16;;;;;;;7.57;4.30;;;3.80;99.90;;;;;;5054001;28;20288;-30
2023/03/11 08:31:46;;;;;;;9.03;4.60;;;3.80;99.90;;;;;;5055479;28;20208;-32
2023/03/11 08:34:16;;;;;;;8.43;4.80;;;3.80;99.90;;;;;;5032450;28;20270;-32
2023/03/11 08:36:51;;;;;;;10.60;4.50;;;3.90;99.90;;;;;;5054681;28;20254;-32
2023/03/11 08:39:22;;;;;;;8.33;4.37;;;3.90;99.90;;;;;;5046711;28;20211;-32
2023/03/11 08:41:49;;;;;;;9.27;5.70;;;4.00;99.90;;;;;;5047069;28;21196;-32
2023/03/11 08:44:17;;;;;;;8.93;4.67;;;4.00;99.90;;;;;;5050039;28;20200;-32
2023/03/11 08:46:46;;;;;;;8.70;4.63;;;4.10;99.90;;;;;;5065784;28;20208;-32
2023/03/11 08:49:17;;;;;;;7.73;4.87;;;4.10;99.90;;;;;;5067797;28;20203;-32
2023/03/11 08:51:49;;;;;;;9.87;4.30;;;4.10;99.90;;;;;;5056654;28;20239;-32
2023/03/11 08:54:20;;;;;;;7.33;4.93;;;4.20;99.90;;;;;;5065425;28;20254;-32
2023/03/11 08:56:47;;;;;;;8.07;4.33;;;4.20;99.90;;;;;;5067172;28;20630;-32
2023/03/11 08:59:17;;;;;;;12.87;5.20;;;4.20;99.90;;;;;;5063772;28;20223;-32
2023/03/11 09:01:46;;;;;;;7.97;4.30;;;4.30;99.90;;;;;;5060119;28;20305;-32
2023/03/11 09:04:18;;;;;;;8.77;4.03;;;4.30;99.90;;;;;;5041430;28;20227;-32
2023/03/11 09:06:48;;;;;;;10.17;4.30;;;4.40;99.90;;;;;;5044699;28;20211;-32
2023/03/11 09:09:19;;;;;;;8.77;4.63;;;4.40;99.90;;;;;;5043689;28;20286;-32
2023/03/11 09:11:47;;;;;;;8.00;4.20;;;4.40;99.90;;;;;;5046160;28;20511;-32
2023/03/11 09:14:19;;;;;;;6.47;3.60;;;4.50;99.90;;;;;;5046701;28;20772;-32
2023/03/11 09:16:51;;;;;;;8.03;3.33;;;4.50;99.90;;;;;;5027394;28;20204;-32
2023/03/11 09:19:23;;;;;;;6.03;3.40;;;4.60;99.90;;;;;;5035192;28;20702;-32
2023/03/11 09:21:52;;;;;;;7.47;3.53;;;4.60;99.90;;;;;;5036501;28;20301;-32
2023/03/11 09:24:19;;;;;;;6.70;3.10;;;4.70;99.90;;;;;;5043111;28;20200;-32
2023/03/11 09:26:49;;;;;;;6.73;3.50;;;4.70;99.90;;;;;;5032097;28;20220;-32
2023/03/11 09:29:16;;;;;;;13.23;3.33;;;4.70;99.90;;;;;;5045241;28;20279;-32
2023/03/11 09:31:43;;;;;;;7.90;3.50;;;4.70;99.90;;;;;;5064320;28;20296;-32
2023/03/11 09:34:13;;;;;;;6.47;1.73;;;4.80;99.90;;;;;;5051331;28;20220;-31
2023/03/11 09:36:44;;;;;;;14.93;2.87;;;4.80;99.90;;;;;;5044424;28;20239;-32
2023/03/11 09:39:12;;;;;;;7.07;1.50;;;4.90;99.90;;;;;;5045577;28;20196;-31
2023/03/11 09:41:50;;;;;;;5.07;1.40;;;4.90;99.90;;;;;;5034745;28;20245;-32
2023/03/11 09:45:05;;;;;;;4.40;1.03;;;4.90;99.90;;;;;;5044405;28;20200;-32
2023/03/11 09:47:51;;;;;;;3.10;1.07;;;5.00;99.90;;;;;;5010676;28;20299;-32
2023/03/11 09:50:47;;;;;;;5.43;1.33;;;5.00;99.90;;;;;;5051087;28;20218;-32
2023/03/11 09:53:41;;;;;;;4.93;1.47;;;5.00;99.90;;;;;;5045602;28;20335;-33
2023/03/11 09:56:13;;;;;;;5.83;1.20;;;5.10;99.90;;;;;;5042802;28;20315;-33
2023/03/11 09:58:46;;;;;;;4.57;1.10;;;5.00;99.90;;;;;;5043545;28;20710;-33
2023/03/11 10:01:45;;;;;;;4.30;1.40;;;5.00;99.90;;;;;;5056020;28;20253;-33
2023/03/11 10:04:22;;;;;;;4.33;1.30;;;5.00;99.90;;;;;;5064819;28;20608;-33
2023/03/11 10:06:50;;;;;;;5.60;1.30;;;5.00;99.90;;;;;;5047599;28;20700;-33
2023/03/11 10:09:38;;;;;;;3.80;1.10;;;5.00;99.90;;;;;;5042678;28;20304;-33
2023/03/11 10:12:25;;;;;;;2.93;1.00;;;5.00;99.90;;;;;;5042825;28;20270;-33
2023/03/11 10:15:10;;;;;;;3.43;0.87;;;5.10;99.90;;;;;;5047139;28;20253;-33
2023/03/11 10:18:16;;;;;;;1.57;0.93;;;5.20;99.90;;;;;;5045756;28;20590;-33
2023/03/11 10:21:01;;;;;;;3.90;1.00;;;5.20;99.90;;;;;;4998234;28;20244;-33
2023/03/11 10:23:47;;;;;;;4.60;1.60;;;5.30;99.90;;;;;;5044619;28;20295;-31
2023/03/11 10:26:19;;;;;;;3.67;1.03;;;5.30;99.90;;;;;;5046732;28;20239;-31
2023/03/11 10:28:58;;;;;;;4.00;1.30;;;5.40;99.90;;;;;;5026670;28;20193;-31
2023/03/11 10:31:36;;;;;;;3.77;1.17;;;5.50;99.90;;;;;;5050527;28;20212;-31
2023/03/11 10:34:14;;;;;;;6.67;1.40;;;5.50;99.90;;;;;;5043507;28;20215;-31
2023/03/11 10:36:54;;;;;;;7.73;1.33;;;5.50;99.90;;;;;;5046954;28;20624;-31
2023/03/11 10:39:28;;;;;;;3.10;1.47;;;5.60;99.90;;;;;;5041837;28;20200;-31
2023/03/11 10:42:05;;;;;;;7.37;1.43;;;5.60;99.90;;;;;;5042678;28;20232;-31
2023/03/11 10:44:38;;;;;;;4.93;1.40;;;5.70;99.90;;;;;;5043762;28;20199;-31
2023/03/11 10:47:16;;;;;;;5.70;1.27;;;5.80;99.90;;;;;;5058563;28;20233;-31
2023/03/11 10:49:44;;;;;;;2.87;1.23;;;5.90;99.90;;;;;;5044572;28;20317;-31
2023/03/11 10:52:16;;;;;;;3.57;1.30;;;6.00;99.90;;;;;;5043154;28;20214;-31
2023/03/11 10:54:59;;;;;;;3.50;1.07;;;6.00;99.90;;;;;;5044142;28;20275;-31
2023/03/11 10:57:33;;;;;;;3.37;1.30;;;6.10;99.90;;;;;;5044348;28;20741;-30
2023/03/11 11:00:16;;;;;;;6.43;1.30;;;6.20;99.90;;;;;;5034432;28;20326;-30
2023/03/11 11:02:50;;;;;;;7.43;1.57;;;6.20;99.90;;;;;;5040145;28;20318;-31
2023/03/11 11:05:18;;;;;;;3.50;1.50;;;6.30;99.90;;;;;;5042564;28;20293;-31
2023/03/11 11:07:47;;;;;;;3.90;1.07;;;6.30;99.90;;;;;;5056609;28;20216;-31
2023/03/11 11:10:22;;;;;;;4.67;1.03;;;6.40;99.90;;;;;;5020532;28;20236;-30
2023/03/11 11:12:53;;;;;;;3.33;1.33;;;6.40;99.90;;;;;;5040768;28;20223;-30
2023/03/11 11:15:29;;;;;;;8.33;1.43;;;6.50;99.90;;;;;;5037197;28;20556;-30
2023/03/11 11:18:03;;;;;;;3.90;1.43;;;6.50;99.90;;;;;;5046121;28;20211;-31
2023/03/11 11:20:33;;;;;;;5.40;1.60;;;6.50;99.90;;;;;;5042379;28;20454;-31
2023/03/11 11:23:03;;;;;;;4.13;1.30;;;6.50;99.90;;;;;;5026558;28;20211;-31
2023/03/11 11:25:32;;;;;;;3.40;1.00;;;6.50;99.90;;;;;;5054820;28;20217;-31
2023/03/11 11:28:16;;;;;;;2.67;0.97;;;6.50;99.90;;;;;;5044536;28;20242;-31
2023/03/11 11:30:56;;;;;;;3.03;1.13;;;6.60;99.90;;;;;;5024787;28;20264;-31
2023/03/11 11:33:39;;;;;;;3.83;1.83;;;6.60;99.90;;;;;;5058930;28;20303;-31
2023/03/11 11:36:13;;;;;;;3.13;1.23;;;6.60;99.90;;;;;;5046782;28;20206;-32
2023/03/11 11:38:46;;;;;;;4.27;1.20;;;6.70;99.90;;;;;;5043098;28;20277;-31
2023/03/11 11:41:17;;;;;;;5.23;1.30;;;6.80;99.90;;;;;;5042361;28;20218;-31
2023/03/11 11:43:52;;;;;;;3.33;1.30;;;6.80;99.90;;;;;;5041038;28;20255;-31
2023/03/11 11:46:42;;;;;;;5.73;1.17;;;6.90;99.90;;;;;;5045183;28;20207;-32
2023/03/11 11:49:25;;;;;;;5.53;1.10;;;6.90;99.90;;;;;;5078883;28;20208;-31
2023/03/11 11:52:12;;;;;;;6.97;1.30;;;7.00;99.90;;;;;;5050867;28;20688;-31
2023/03/11 11:54:57;;;;;;;5.30;1.00;;;7.10;99.90;;;;;;5046337;28;20724;-31
2023/03/11 11:57:29;;;;;;;4.53;1.17;;;7.20;99.90;;;;;;5047143;28;20258;-31
2023/03/11 12:00:04;;;;;;;4.20;1.10;;;7.30;99.90;;;;;;5063990;28;20219;-31
2023/03/11 12:02:53;;;;;;;4.47;1.00;;;7.30;99.90;;;;;;5049404;28;20228;-31
2023/03/11 12:05:33;;;;;;;4.23;1.13;;;7.40;99.90;;;;;;5045898;28;20559;-31
2023/03/11 12:08:18;;;;;;;4.57;1.40;;;7.40;99.90;;;;;;5049920;28;20227;-31
2023/03/11 12:10:54;;;;;;;3.87;1.20;;;7.50;99.90;;;;;;5046474;28;20329;-31
2023/03/11 12:14:00;;;;;;;7.93;1.57;;;7.60;99.90;;;;;;5047444;28;20350;-31
2023/03/11 12:16:40;;;;;;;3.50;1.30;;;7.60;99.90;;;;;;5036656;28;20219;-31
2023/03/11 12:19:10;;;;;;;2.50;1.23;;;7.70;99.90;;;;;;5040209;28;20255;-31
2023/03/11 12:21:49;;;;;;;3.97;1.03;;;7.70;99.90;;;;;;5048320;28;20315;-31
2023/03/11 12:24:28;;;;;;;3.03;0.80;;;7.80;99.90;;;;;;5047163;28;20212;-31
2023/03/11 12:27:22;;;;;;;3.13;1.27;;;7.80;99.90;;;;;;5048060;28;20219;-32
2023/03/11 12:29:56;;;;;;;4.27;1.10;;;7.90;99.90;;;;;;5046173;28;20287;-32
2023/03/11 12:32:51;;;;;;;4.83;1.30;;;7.90;99.90;;;;;;5046526;28;20682;-32
2023/03/11 12:35:27;;;;;;;5.20;1.00;;;7.90;99.90;;;;;;5049618;28;20637;-32
2023/03/11 12:38:02;;;;;;;3.83;1.53;;;8.00;99.90;;;;;;5047509;28;20234;-32
2023/03/11 12:40:41;;;;;;;3.67;1.30;;;8.10;99.90;;;;;;5046526;28;20212;-31
2023/03/11 12:43:34;;;;;;;5.27;1.30;;;8.00;99.90;;;;;;5046832;28;20227;-32
2023/03/11 12:46:11;;;;;;;4.43;1.60;;;8.10;99.90;;;;;;5021019;28;20240;-32
2023/03/11 12:49:06;;;;;;;3.57;0.97;;;8.00;99.90;;;;;;5046091;28;20192;-31
2023/03/11 12:51:36;;;;;;;6.13;1.27;;;8.00;99.90;;;;;;5050387;28;20286;-31
2023/03/11 12:54:42;;;;;;;5.10;1.03;;;7.90;99.90;;;;;;5044741;28;20335;-31
2023/03/11 12:57:18;;;;;;;5.80;1.27;;;8.00;99.90;;;;;;4947529;28;20651;-31
2023/03/11 13:00:10;;;;;;;4.73;1.07;;;8.00;99.90;;;;;;5035563;28;20215;-32
2023/03/11 13:03:17;;;;;;;2.73;1.10;;;8.00;99.90;;;;;;5067425;28;20223;-31
2023/03/11 13:06:10;;;;;;;2.60;0.90;;;8.10;99.90;;;;;;5047443;28;20590;-32
2023/03/11 13:08:53;;;;;;;2.87;0.60;;;8.20;99.90;;;;;;5047317;28;20209;-32
2023/03/11 13:11:34;;;;;;;2.63;0.87;;;8.20;99.90;;;;;;5045068;28;20765;-31
2023/03/11 13:14:15;;;;;;;3.53;0.90;;;8.10;99.90;;;;;;5042544;28;20247;-32
2023/03/11 13:16:45;;;;;;;3.07;0.90;;;8.10;99.90;;;;;;5048080;28;20200;-31
2023/03/11 13:19:31;;;;;;;1.83;0.80;;;8.10;99.90;;;;;;5026800;28;20576;-32
2023/03/11 13:22:00;;;;;;;3.43;1.20;;;8.10;99.90;;;;;;5028626;28;20752;-32
2023/03/11 13:24:30;;;;;;;4.57;1.13;;;8.00;99.90;;;;;;5026824;28;20200;-32